createdAt,value
2019-01-11T00:00:01.782Z,11.10
2019-01-11T00:01:14.235Z,11.50
2019-01-11T00:02:19.430Z,10.30
2019-01-11T00:03:24.706Z,12.25
2019-01-11T00:04:30.072Z,11.00
2019-01-11T00:05:35.332Z,9.65
2019-01-11T00:06:40.546Z,10.50
2019-01-11T00:07:45.837Z,12.90
2019-01-11T00:08:51.205Z,12.53
2019-01-11T00:09:56.492Z,12.18
2019-01-11T00:11:01.783Z,10.15
2019-01-11T00:12:07.104Z,10.72
2019-01-11T00:13:12.336Z,10.65
2019-01-11T00:14:17.625Z,10.88
2019-01-11T00:15:22.788Z,10.18
2019-01-11T00:16:28.141Z,10.10
2019-01-11T00:17:33.370Z,11.22
2019-01-11T00:18:38.659Z,11.57
2019-01-11T00:19:43.941Z,14.03
2019-01-11T00:20:49.201Z,11.33
2019-01-11T00:21:54.530Z,12.28
2019-01-11T00:22:59.778Z,11.05
2019-01-11T00:24:05.920Z,13.85
2019-01-11T00:25:11.100Z,11.88
2019-01-11T00:26:16.354Z,15.20
2019-01-11T00:27:21.617Z,12.23
2019-01-11T00:28:26.992Z,12.50
2019-01-11T00:29:32.232Z,14.60
2019-01-11T00:30:37.476Z,13.43
2019-01-11T00:31:42.728Z,16.48
2019-01-11T00:32:48.063Z,16.73
2019-01-11T00:33:53.485Z,15.90
2019-01-11T00:34:58.758Z,16.10
2019-01-11T00:36:04.126Z,16.52
2019-01-11T00:37:09.466Z,16.40
2019-01-11T00:38:14.683Z,15.20
2019-01-11T00:39:19.956Z,18.52
2019-01-11T00:40:25.148Z,17.07
2019-01-11T00:41:30.415Z,17.77
2019-01-11T00:42:35.612Z,16.55
2019-01-11T00:43:40.877Z,17.07
2019-01-11T00:44:46.134Z,16.82
2019-01-11T00:45:51.256Z,16.85
2019-01-11T00:46:56.473Z,17.80
2019-01-11T00:48:01.619Z,16.60
2019-01-11T00:49:06.882Z,18.25
2019-01-11T00:50:12.044Z,19.35
2019-01-11T00:51:17.293Z,18.87
2019-01-11T00:52:22.590Z,18.50
2019-01-11T00:53:27.878Z,20.00
2019-01-11T00:54:33.165Z,17.75
2019-01-11T00:55:38.465Z,17.80
2019-01-11T00:56:43.661Z,16.07
2019-01-11T00:57:48.955Z,18.73
2019-01-11T00:58:54.341Z,20.05
2019-01-11T00:59:59.640Z,19.62
2019-01-11T01:01:04.992Z,19.17
2019-01-11T01:02:10.193Z,18.37
2019-01-11T01:03:15.509Z,18.65
2019-01-11T01:04:20.692Z,20.80
2019-01-11T01:05:26.118Z,18.07
2019-01-11T01:06:31.377Z,17.25
2019-01-11T01:07:36.609Z,19.10
2019-01-11T01:08:41.964Z,18.45
2019-01-11T01:09:47.321Z,19.30
2019-01-11T01:10:52.803Z,21.27
2019-01-11T01:11:58.062Z,18.73
2019-01-11T01:13:03.361Z,18.45
2019-01-11T01:14:08.554Z,20.43
2019-01-11T01:15:14.250Z,20.08
2019-01-11T01:16:19.541Z,20.05
2019-01-11T01:17:24.737Z,20.12
2019-01-11T01:18:29.952Z,17.62
2019-01-11T01:19:35.298Z,18.77
2019-01-11T01:20:40.622Z,22.37
2019-01-11T01:21:45.860Z,21.15
2019-01-11T01:22:51.179Z,22.42
2019-01-11T01:23:57.223Z,20.77
2019-01-11T01:25:02.604Z,18.57
2019-01-11T01:26:07.879Z,21.62
2019-01-11T01:27:13.210Z,19.45
2019-01-11T01:28:18.346Z,21.37
2019-01-11T01:29:23.593Z,21.70
2019-01-11T01:30:28.859Z,21.20
2019-01-11T01:31:34.118Z,21.05
2019-01-11T01:32:39.385Z,22.73
2019-01-11T01:33:44.646Z,20.85
2019-01-11T01:34:49.959Z,21.68
2019-01-11T01:35:55.268Z,21.68
2019-01-11T01:37:00.566Z,20.23
2019-01-11T01:38:05.843Z,22.25
2019-01-11T01:39:11.129Z,22.17
2019-01-11T01:40:17.488Z,20.52
2019-01-11T01:41:22.761Z,22.50
2019-01-11T01:42:28.025Z,22.37
2019-01-11T01:43:33.269Z,20.90
2019-01-11T01:44:38.452Z,19.27
2019-01-11T01:45:43.778Z,20.48
2019-01-11T01:46:49.057Z,22.45
2019-01-11T01:47:54.348Z,22.82
2019-01-11T01:48:59.546Z,21.93
2019-01-11T01:50:06.222Z,21.48
2019-01-11T01:51:12.577Z,21.57
2019-01-11T01:52:17.794Z,22.22
2019-01-11T01:53:23.124Z,18.82
2019-01-11T01:54:28.297Z,19.37
2019-01-11T01:55:33.616Z,19.45
2019-01-11T01:56:38.837Z,20.65
2019-01-11T01:57:44.141Z,20.75
2019-01-11T01:58:49.335Z,20.27
2019-01-11T01:59:54.792Z,20.35
2019-01-11T02:01:00.032Z,20.02
2019-01-11T02:02:05.577Z,22.75
2019-01-11T02:03:10.851Z,21.62
2019-01-11T02:04:16.100Z,20.57
2019-01-11T02:05:21.467Z,20.23
2019-01-11T02:06:26.740Z,19.98
2019-01-11T02:07:32.033Z,17.42
2019-01-11T02:08:37.459Z,20.40
2019-01-11T02:09:43.098Z,20.17
2019-01-11T02:10:48.365Z,19.92
2019-01-11T02:11:53.757Z,20.12
2019-01-11T02:12:58.906Z,20.00
2019-01-11T02:14:04.681Z,20.27
2019-01-11T02:15:11.856Z,19.95
2019-01-11T02:16:17.160Z,19.30
2019-01-11T02:17:22.417Z,18.52
2019-01-11T02:18:27.718Z,18.23
2019-01-11T02:19:33.208Z,20.50
2019-01-11T02:20:38.540Z,20.05
2019-01-11T02:21:43.910Z,20.23
2019-01-11T02:22:49.202Z,21.25
2019-01-11T02:23:54.474Z,19.57
2019-01-11T02:24:59.699Z,19.45
2019-01-11T02:26:04.962Z,20.45
2019-01-11T02:27:10.191Z,22.20
2019-01-11T02:28:15.456Z,19.98
2019-01-11T02:29:20.721Z,18.90
2019-01-11T02:30:26.027Z,21.30
2019-01-11T02:31:31.192Z,22.40
2019-01-11T02:32:36.621Z,20.20
2019-01-11T02:33:41.915Z,21.25
2019-01-11T02:34:47.240Z,23.40
2019-01-11T02:35:52.573Z,22.50
2019-01-11T02:36:57.998Z,22.27
2019-01-11T02:38:03.307Z,23.10
2019-01-11T02:39:09.655Z,22.15
2019-01-11T02:40:15.090Z,25.50
2019-01-11T02:41:20.366Z,21.02
2019-01-11T02:42:25.628Z,23.15
2019-01-11T02:43:30.926Z,21.68
2019-01-11T02:44:36.520Z,25.20
2019-01-11T02:45:41.993Z,22.35
2019-01-11T02:46:47.321Z,20.70
2019-01-11T02:47:52.566Z,24.15
2019-01-11T02:48:57.874Z,21.93
2019-01-11T02:50:03.164Z,22.35
2019-01-11T02:51:08.566Z,24.55
2019-01-11T02:52:13.788Z,21.10
2019-01-11T02:53:19.101Z,20.43
2019-01-11T02:54:24.367Z,24.57
2019-01-11T02:55:29.685Z,23.40
2019-01-11T02:56:34.925Z,21.85
2019-01-11T02:57:40.334Z,23.00
2019-01-11T02:58:45.642Z,22.58
2019-01-11T02:59:50.953Z,22.13
2019-01-11T03:00:56.271Z,24.18
2019-01-11T03:02:01.584Z,22.15
2019-01-11T03:03:06.930Z,25.85
2019-01-11T03:04:12.258Z,23.27
2019-01-11T03:05:18.040Z,24.98
2019-01-11T03:06:23.311Z,23.30
2019-01-11T03:07:28.619Z,21.93
2019-01-11T03:08:33.914Z,23.12
2019-01-11T03:09:39.130Z,22.77
2019-01-11T03:10:44.406Z,24.98
2019-01-11T03:11:49.582Z,20.23
2019-01-11T03:12:54.942Z,21.68
2019-01-11T03:14:00.348Z,22.27
2019-01-11T03:15:06.568Z,23.67
2019-01-11T03:16:11.832Z,22.90
2019-01-11T03:17:17.118Z,21.25
2019-01-11T03:18:22.567Z,24.15
2019-01-11T03:19:27.761Z,21.87
2019-01-11T03:20:33.423Z,20.65
2019-01-11T03:21:38.597Z,22.20
2019-01-11T03:22:43.941Z,22.32
2019-01-11T03:23:49.270Z,24.57
2019-01-11T03:24:54.603Z,21.97
2019-01-11T03:25:59.785Z,23.98
2019-01-11T03:27:05.118Z,23.67
2019-01-11T03:28:10.406Z,23.18
2019-01-11T03:29:15.681Z,21.23
2019-01-11T03:30:21.623Z,23.00
2019-01-11T03:31:34.745Z,24.60
2019-01-11T03:32:40.025Z,21.75
2019-01-11T03:33:45.461Z,24.52
2019-01-11T03:35:12.734Z,25.43
2019-01-11T03:36:18.024Z,24.57
2019-01-11T03:37:23.260Z,24.25
2019-01-11T03:38:28.575Z,26.23
2019-01-11T03:39:33.873Z,28.27
2019-01-11T03:40:39.079Z,23.85
2019-01-11T03:41:58.993Z,25.60
2019-01-11T03:43:05.167Z,27.37
2019-01-11T03:44:10.471Z,25.15
2019-01-11T03:45:17.744Z,25.43
2019-01-11T03:46:22.961Z,24.63
2019-01-11T03:47:28.223Z,26.30
2019-01-11T03:48:33.564Z,26.27
2019-01-11T03:49:38.834Z,27.42
2019-01-11T03:50:44.118Z,27.65
2019-01-11T03:51:49.425Z,24.72
2019-01-11T03:52:54.760Z,26.57
2019-01-11T03:54:00.091Z,26.90
2019-01-11T03:55:07.470Z,25.75
2019-01-11T03:56:12.751Z,24.67
2019-01-11T03:57:18.086Z,26.27
2019-01-11T03:58:23.372Z,23.73
2019-01-11T03:59:28.741Z,26.73
2019-01-11T04:00:34.169Z,26.52
2019-01-11T04:01:39.415Z,27.10
2019-01-11T04:02:44.664Z,26.07
2019-01-11T04:03:50.022Z,25.20
2019-01-11T04:04:55.291Z,25.70
2019-01-11T04:06:00.554Z,25.52
2019-01-11T04:07:05.864Z,28.07
2019-01-11T04:08:11.202Z,23.38
2019-01-11T04:09:16.479Z,25.97
2019-01-11T04:10:23.426Z,26.05
2019-01-11T04:11:30.794Z,23.50
2019-01-11T04:12:36.142Z,23.50
2019-01-11T04:13:41.468Z,24.95
2019-01-11T04:14:46.803Z,24.30
2019-01-11T04:15:52.254Z,26.35
2019-01-11T04:16:57.587Z,25.65
2019-01-11T04:18:21.825Z,26.17
2019-01-11T04:19:27.250Z,24.15
2019-01-11T04:20:32.482Z,22.90
2019-01-11T04:21:37.691Z,23.85
2019-01-11T04:22:47.902Z,23.95
2019-01-11T04:23:53.197Z,24.07
2019-01-11T04:25:06.134Z,26.75
2019-01-11T04:26:11.470Z,24.30
2019-01-11T04:27:16.752Z,24.65
2019-01-11T04:28:21.963Z,23.92
2019-01-11T04:29:27.270Z,22.73
2019-01-11T04:30:32.552Z,23.25
2019-01-11T04:31:37.757Z,22.82
2019-01-11T04:32:42.975Z,23.62
2019-01-11T04:33:48.262Z,23.20
2019-01-11T04:34:53.449Z,24.18
2019-01-11T04:35:58.721Z,25.30
2019-01-11T04:37:03.889Z,25.00
2019-01-11T04:38:09.235Z,24.05
2019-01-11T04:39:14.557Z,25.08
2019-01-11T04:40:20.016Z,26.80
2019-01-11T04:41:25.276Z,26.12
2019-01-11T04:42:30.865Z,26.40
2019-01-11T04:43:36.181Z,25.72
2019-01-11T04:44:41.564Z,27.32
2019-01-11T04:45:46.841Z,27.32
2019-01-11T04:46:52.122Z,25.72
2019-01-11T04:47:57.609Z,28.65
2019-01-11T04:49:02.913Z,27.10
2019-01-11T04:50:09.875Z,29.45
2019-01-11T04:51:15.263Z,29.63
2019-01-11T04:52:20.543Z,30.80
2019-01-11T04:53:25.838Z,27.60
2019-01-11T04:54:31.100Z,30.85
2019-01-11T04:55:36.325Z,31.85
2019-01-11T04:56:41.620Z,31.85
2019-01-11T04:57:46.915Z,30.95
2019-01-11T04:58:52.199Z,28.80
2019-01-11T04:59:57.387Z,29.27
2019-01-11T05:01:02.767Z,31.82
2019-01-11T05:02:08.179Z,30.50
2019-01-11T05:03:14.650Z,32.48
2019-01-11T05:04:19.839Z,33.70
2019-01-11T05:05:25.133Z,30.12
2019-01-11T05:06:30.833Z,31.52
2019-01-11T05:07:36.155Z,33.25
2019-01-11T05:08:41.411Z,31.23
2019-01-11T05:09:46.689Z,31.30
2019-01-11T05:10:51.951Z,31.68
2019-01-11T05:11:57.184Z,33.80
2019-01-11T05:13:21.430Z,34.38
2019-01-11T05:14:26.698Z,35.58
2019-01-11T05:15:31.883Z,35.10
2019-01-11T05:16:39.622Z,32.42
2019-01-11T05:17:43.996Z,35.10
2019-01-11T05:18:49.302Z,37.45
2019-01-11T05:19:54.556Z,38.73
2019-01-11T05:20:59.811Z,37.60
2019-01-11T05:22:05.154Z,37.63
2019-01-11T05:23:10.409Z,37.83
2019-01-11T05:24:15.809Z,38.80
2019-01-11T05:25:21.063Z,42.83
2019-01-11T05:26:26.346Z,41.40
2019-01-11T05:27:31.518Z,40.48
2019-01-11T05:28:36.813Z,41.68
2019-01-11T05:29:42.059Z,41.73
2019-01-11T05:30:47.326Z,44.60
2019-01-11T05:31:52.615Z,44.15
2019-01-11T05:32:57.871Z,44.67
2019-01-11T05:34:03.226Z,42.60
2019-01-11T05:35:08.583Z,46.20
2019-01-11T05:36:13.929Z,46.55
2019-01-11T05:37:19.268Z,46.45
2019-01-11T05:38:24.541Z,43.33
2019-01-11T05:39:29.745Z,47.78
2019-01-11T05:40:35.114Z,48.23
2019-01-11T05:41:40.498Z,48.60
2019-01-11T05:42:45.770Z,47.53
2019-01-11T05:43:50.980Z,48.33
2019-01-11T05:44:56.349Z,48.42
2019-01-11T05:46:01.737Z,49.83
2019-01-11T05:47:07.028Z,47.87
2019-01-11T05:48:12.256Z,48.05
2019-01-11T05:49:17.598Z,45.38
2019-01-11T05:50:24.257Z,46.90
2019-01-11T05:51:32.864Z,52.85
2019-01-11T05:52:38.139Z,49.83
2019-01-11T05:53:43.305Z,45.08
2019-01-11T05:54:48.487Z,51.35
2019-01-11T05:55:54.599Z,50.83
2019-01-11T05:56:59.941Z,53.33
2019-01-11T05:58:24.876Z,52.40
2019-01-11T05:59:30.086Z,52.35
2019-01-11T06:00:35.278Z,51.63
2019-01-11T06:01:40.577Z,50.63
2019-01-11T06:02:45.740Z,54.05
2019-01-11T06:03:51.020Z,56.55
2019-01-11T06:05:05.242Z,51.50
2019-01-11T06:06:10.629Z,54.18
2019-01-11T06:07:21.366Z,53.68
2019-01-11T06:08:27.539Z,48.95
2019-01-11T06:09:32.827Z,52.90
2019-01-11T06:10:38.056Z,53.42
2019-01-11T06:11:43.378Z,54.50
2019-01-11T06:12:48.641Z,55.98
2019-01-11T06:13:53.822Z,57.10
2019-01-11T06:14:59.065Z,53.98
2019-01-11T06:16:04.889Z,56.88
2019-01-11T06:17:11.109Z,57.48
2019-01-11T06:18:17.022Z,52.95
2019-01-11T06:19:22.268Z,55.40
2019-01-11T06:20:30.383Z,55.98
2019-01-11T06:21:34.438Z,59.53
2019-01-11T06:22:39.753Z,59.23
2019-01-11T06:23:44.896Z,56.77
2019-01-11T06:24:50.037Z,55.25
2019-01-11T06:25:55.321Z,59.10
2019-01-11T06:27:00.622Z,55.58
2019-01-11T06:28:05.830Z,57.30
2019-01-11T06:29:11.069Z,64.97
2019-01-11T06:30:16.442Z,53.15
2019-01-11T06:31:22.131Z,59.73
2019-01-11T06:32:27.436Z,56.73
2019-01-11T06:33:32.616Z,57.43
2019-01-11T06:34:37.817Z,61.10
2019-01-11T06:35:43.084Z,60.60
2019-01-11T06:36:48.839Z,61.10
2019-01-11T06:37:54.059Z,63.90
2019-01-11T06:38:59.311Z,64.58
2019-01-11T06:40:05.170Z,63.70
2019-01-11T06:41:10.429Z,62.48
2019-01-11T06:42:25.775Z,59.95
2019-01-11T06:43:30.981Z,61.23
2019-01-11T06:44:39.105Z,62.23
2019-01-11T06:45:43.041Z,60.63
2019-01-11T06:46:48.315Z,69.85
2019-01-11T06:47:53.515Z,61.53
2019-01-11T06:48:58.701Z,62.45
2019-01-11T06:50:04.195Z,74.65
2019-01-11T06:51:09.544Z,74.07
2019-01-11T06:52:14.840Z,71.05
2019-01-11T06:53:20.113Z,66.77
2019-01-11T06:54:25.283Z,69.20
2019-01-11T06:55:30.553Z,70.10
2019-01-11T06:56:35.709Z,68.15
2019-01-11T06:57:41.227Z,66.90
2019-01-11T06:58:46.478Z,60.57
2019-01-11T06:59:51.738Z,64.40
2019-01-11T07:00:56.992Z,70.00
2019-01-11T07:02:02.189Z,71.42
2019-01-11T07:03:07.426Z,62.80
2019-01-11T07:04:12.712Z,61.05
2019-01-11T07:05:18.004Z,63.70
2019-01-11T07:06:23.264Z,64.25
2019-01-11T07:07:30.024Z,65.32
2019-01-11T07:08:35.211Z,59.33
2019-01-11T07:09:40.448Z,68.12
2019-01-11T07:10:45.636Z,72.30
2019-01-11T07:11:50.867Z,66.67
2019-01-11T07:12:56.037Z,68.10
2019-01-11T07:14:01.310Z,65.80
2019-01-11T07:15:08.191Z,65.73
2019-01-11T07:16:13.867Z,62.15
2019-01-11T07:17:19.118Z,62.80
2019-01-11T07:18:24.400Z,62.10
2019-01-11T07:19:29.623Z,64.65
2019-01-11T07:20:34.843Z,62.03
2019-01-11T07:21:41.233Z,59.20
2019-01-11T07:22:46.538Z,62.90
2019-01-11T07:23:51.718Z,61.68
2019-01-11T07:24:56.904Z,59.88
2019-01-11T07:26:02.234Z,62.27
2019-01-11T07:27:07.515Z,60.93
2019-01-11T07:28:13.690Z,65.10
2019-01-11T07:29:19.073Z,66.22
2019-01-11T07:30:25.922Z,59.65
2019-01-11T07:31:33.491Z,61.43
2019-01-11T07:32:38.768Z,61.10
2019-01-11T07:33:44.018Z,62.23
2019-01-11T07:34:49.275Z,60.03
2019-01-11T07:36:05.822Z,67.33
2019-01-11T07:37:11.210Z,67.12
2019-01-11T07:38:16.433Z,64.60
2019-01-11T07:39:31.705Z,63.08
2019-01-11T07:40:36.968Z,64.12
2019-01-11T07:41:42.172Z,69.87
2019-01-11T07:42:47.362Z,67.15
2019-01-11T07:43:52.620Z,66.95
2019-01-11T07:44:57.794Z,68.50
2019-01-11T07:46:05.214Z,68.67
2019-01-11T07:47:10.571Z,71.02
2019-01-11T07:48:15.824Z,75.60
2019-01-11T07:49:23.279Z,70.35
2019-01-11T07:50:28.026Z,64.15
2019-01-11T07:51:33.356Z,70.85
2019-01-11T07:52:40.044Z,71.50
2019-01-11T07:53:45.450Z,65.90
2019-01-11T07:54:50.715Z,73.90
2019-01-11T07:55:55.887Z,70.20
2019-01-11T07:57:01.123Z,74.07
2019-01-11T07:58:09.389Z,66.73
2019-01-11T07:59:14.716Z,69.70
2019-01-11T08:00:19.893Z,73.60
2019-01-11T08:01:25.252Z,72.43
2019-01-11T08:02:30.523Z,71.13
2019-01-11T08:03:35.782Z,64.75
2019-01-11T08:04:40.931Z,68.83
2019-01-11T08:05:46.206Z,65.67
2019-01-11T08:06:51.440Z,70.63
2019-01-11T08:07:56.748Z,71.47
2019-01-11T08:09:02.796Z,63.93
2019-01-11T08:10:09.769Z,64.07
2019-01-11T08:11:15.170Z,70.17
2019-01-11T08:12:20.531Z,70.40
2019-01-11T08:13:27.289Z,67.55
2019-01-11T08:14:35.067Z,69.80
2019-01-11T08:15:43.889Z,68.07
2019-01-11T08:16:50.952Z,71.43
2019-01-11T08:17:57.779Z,70.83
2019-01-11T08:19:04.698Z,68.00
2019-01-11T08:20:14.284Z,67.97
2019-01-11T08:21:21.216Z,69.00
2019-01-11T08:22:46.046Z,74.17
2019-01-11T08:23:54.143Z,71.90
2019-01-11T08:25:04.277Z,72.20
2019-01-11T08:26:13.603Z,72.60
2019-01-11T08:27:22.264Z,70.30
2019-01-11T08:28:28.840Z,73.73
2019-01-11T08:29:36.357Z,66.60
2019-01-11T08:30:42.341Z,71.00
2019-01-11T08:31:47.987Z,70.43
2019-01-11T08:32:53.455Z,69.10
2019-01-11T08:33:59.495Z,78.87
2019-01-11T08:35:09.570Z,73.20
2019-01-11T08:36:16.969Z,75.10
2019-01-11T08:37:22.584Z,79.50
2019-01-11T08:38:41.540Z,78.17
2019-01-11T08:39:52.306Z,80.33
2019-01-11T08:41:01.774Z,88.47
2019-01-11T08:42:11.549Z,86.70
2019-01-11T08:43:18.847Z,81.23
2019-01-11T08:44:24.410Z,86.40
2019-01-11T08:45:30.030Z,80.70
2019-01-11T08:46:35.883Z,72.93
2019-01-11T08:47:41.323Z,78.97
2019-01-11T08:48:47.167Z,73.03
2019-01-11T08:49:53.418Z,83.70
2019-01-11T08:51:02.763Z,85.10
2019-01-11T08:52:07.866Z,82.37
2019-01-11T08:53:13.442Z,83.07
2019-01-11T08:54:18.687Z,80.07
2019-01-11T08:55:23.884Z,79.93
2019-01-11T08:56:33.661Z,81.50
2019-01-11T08:57:40.284Z,85.33
2019-01-11T08:58:48.492Z,85.67
2019-01-11T08:59:55.529Z,81.27
2019-01-11T09:01:01.493Z,93.07
2019-01-11T09:02:08.117Z,86.40
2019-01-11T09:03:16.748Z,87.37
2019-01-11T09:04:23.101Z,80.67
2019-01-11T09:05:29.787Z,78.07
2019-01-11T09:06:40.735Z,87.20
2019-01-11T09:07:46.924Z,79.17
2019-01-11T09:08:53.390Z,88.03
2019-01-11T09:10:00.018Z,87.23
2019-01-11T09:11:06.127Z,86.40
2019-01-11T09:12:14.069Z,86.83
2019-01-11T09:13:22.478Z,82.63
2019-01-11T09:14:46.677Z,82.70
2019-01-11T09:15:53.063Z,81.57
2019-01-11T09:16:58.516Z,81.90
2019-01-11T09:18:19.109Z,85.10
2019-01-11T09:19:25.210Z,85.57
2019-01-11T09:20:31.079Z,84.17
2019-01-11T09:21:41.632Z,80.37
2019-01-11T09:22:44.928Z,87.40
2019-01-11T09:23:53.122Z,82.30
2019-01-11T09:24:58.994Z,83.93
2019-01-11T09:26:06.292Z,82.33
2019-01-11T09:27:12.285Z,83.80
2019-01-11T09:28:18.694Z,85.17
2019-01-11T09:29:24.282Z,77.80
2019-01-11T09:30:30.450Z,75.67
2019-01-11T09:31:35.824Z,75.60
2019-01-11T09:32:41.095Z,87.53
2019-01-11T09:33:46.354Z,84.30
2019-01-11T09:34:52.427Z,83.60
2019-01-11T09:35:57.719Z,77.10
2019-01-11T09:37:02.849Z,81.20
2019-01-11T09:38:08.210Z,80.90
2019-01-11T09:39:14.950Z,79.80
2019-01-11T09:40:20.088Z,92.73
2019-01-11T09:41:31.420Z,92.07
2019-01-11T09:42:36.819Z,92.87
2019-01-11T09:43:42.214Z,88.70
2019-01-11T09:44:56.755Z,87.00
2019-01-11T09:46:04.538Z,80.73
2019-01-11T09:47:15.570Z,89.03
2019-01-11T09:48:21.951Z,96.03
2019-01-11T09:49:28.580Z,88.73
2019-01-11T09:50:35.024Z,87.67
2019-01-11T09:51:42.882Z,85.10
2019-01-11T09:52:49.216Z,89.67
2019-01-11T09:53:57.963Z,82.83
2019-01-11T09:55:04.710Z,84.13
2019-01-11T09:56:10.867Z,84.80
2019-01-11T09:57:19.355Z,86.47
2019-01-11T09:58:25.718Z,78.17
2019-01-11T09:59:35.146Z,79.80
2019-01-11T10:00:41.616Z,80.00
2019-01-11T10:01:48.958Z,81.30
2019-01-11T10:03:07.223Z,74.73
2019-01-11T10:04:18.775Z,79.73
2019-01-11T10:05:25.133Z,76.10
2019-01-11T10:06:33.171Z,81.17
2019-01-11T10:07:41.714Z,78.63
2019-01-11T10:08:49.558Z,76.13
2019-01-11T10:09:56.215Z,73.77
2019-01-11T10:11:02.243Z,76.00
2019-01-11T10:12:08.268Z,90.70
2019-01-11T10:13:14.557Z,88.23
2019-01-11T10:14:23.348Z,81.23
2019-01-11T10:15:30.333Z,82.87
2019-01-11T10:16:36.685Z,83.57
2019-01-11T10:17:42.875Z,78.63
2019-01-11T10:18:50.927Z,78.40
2019-01-11T10:19:56.951Z,73.97
2019-01-11T10:21:04.293Z,76.70
2019-01-11T10:22:13.342Z,80.03
2019-01-11T10:23:21.515Z,78.63
2019-01-11T10:24:27.761Z,73.40
2019-01-11T10:25:33.309Z,79.13
2019-01-11T10:26:38.876Z,76.13
2019-01-11T10:27:45.164Z,68.33
2019-01-11T10:28:51.946Z,73.70
2019-01-11T10:29:57.202Z,72.27
2019-01-11T10:31:02.753Z,67.67
2019-01-11T10:32:09.278Z,62.27
2019-01-11T10:33:17.527Z,71.63
2019-01-11T10:34:28.443Z,59.93
2019-01-11T10:35:36.102Z,65.20
2019-01-11T10:36:42.620Z,64.77
2019-01-11T10:37:49.162Z,63.50
2019-01-11T10:38:54.511Z,66.63
2019-01-11T10:39:59.833Z,55.43
2019-01-11T10:41:05.141Z,70.97
2019-01-11T10:42:16.766Z,60.03
2019-01-11T10:43:23.215Z,64.57
2019-01-11T10:44:31.146Z,61.63
2019-01-11T10:45:37.746Z,66.20
2019-01-11T10:46:49.043Z,62.53
2019-01-11T10:48:00.835Z,62.13
2019-01-11T10:49:07.143Z,56.27
2019-01-11T10:50:19.282Z,59.30
2019-01-11T10:51:28.400Z,58.87
2019-01-11T10:52:33.747Z,57.57
2019-01-11T10:53:38.956Z,56.13
2019-01-11T10:54:44.313Z,56.67
2019-01-11T10:55:49.621Z,52.40
2019-01-11T10:57:01.864Z,51.13
2019-01-11T10:58:08.629Z,52.87
2019-01-11T10:59:17.213Z,55.60
2019-01-11T11:00:28.389Z,52.33
2019-01-11T11:01:34.091Z,50.30
2019-01-11T11:02:39.875Z,50.97
2019-01-11T11:03:46.448Z,50.77
2019-01-11T11:04:51.645Z,46.33
2019-01-11T11:05:56.809Z,74.87
2019-01-11T11:07:02.081Z,159.30
2019-01-11T11:08:07.279Z,152.80
2019-01-11T11:09:12.532Z,54.60
2019-01-11T11:10:17.774Z,52.53
2019-01-11T11:11:23.048Z,50.23
2019-01-11T11:12:28.255Z,53.37
2019-01-11T11:13:33.376Z,49.10
2019-01-11T11:14:45.605Z,50.27
2019-01-11T11:15:52.624Z,43.87
2019-01-11T11:17:00.446Z,44.43
2019-01-11T11:18:09.501Z,48.13
2019-01-11T11:19:16.509Z,49.33
2019-01-11T11:20:25.858Z,48.57
2019-01-11T11:21:35.884Z,46.20
2019-01-11T11:22:44.054Z,43.50
2019-01-11T11:23:54.060Z,43.50
2019-01-11T11:25:02.900Z,41.27
2019-01-11T11:26:15.315Z,46.83
2019-01-11T11:27:21.504Z,44.50
2019-01-11T11:28:27.363Z,45.43
2019-01-11T11:29:34.566Z,46.03
2019-01-11T11:30:40.444Z,47.93
2019-01-11T11:31:46.104Z,48.23
2019-01-11T11:32:59.365Z,45.00
2019-01-11T11:34:05.759Z,45.83
2019-01-11T11:35:11.690Z,42.03
2019-01-11T11:36:18.839Z,42.33
2019-01-11T11:37:26.324Z,44.10
2019-01-11T11:38:32.061Z,45.13
2019-01-11T11:39:37.876Z,48.00
2019-01-11T11:40:44.061Z,50.53
2019-01-11T11:41:54.428Z,44.07
2019-01-11T11:43:00.187Z,46.63
2019-01-11T11:44:06.386Z,40.63
2019-01-11T11:45:12.936Z,44.60
2019-01-11T11:46:18.175Z,44.40
2019-01-11T11:47:23.366Z,46.47
2019-01-11T11:48:28.526Z,43.20
2019-01-11T11:49:35.318Z,49.17
2019-01-11T11:50:41.884Z,47.50
2019-01-11T11:51:48.611Z,42.23
2019-01-11T11:52:55.231Z,43.27
2019-01-11T11:54:01.567Z,40.27
2019-01-11T11:55:09.146Z,42.53
2019-01-11T11:56:16.135Z,50.53
2019-01-11T11:57:21.545Z,43.43
2019-01-11T11:58:26.681Z,44.47
2019-01-11T11:59:31.860Z,47.23
2019-01-11T12:00:38.968Z,39.73
2019-01-11T12:01:46.698Z,46.10
2019-01-11T12:02:53.538Z,42.00
2019-01-11T12:03:58.796Z,44.03
2019-01-11T12:05:08.511Z,40.20
2019-01-11T12:06:14.772Z,35.50
2019-01-11T12:07:20.387Z,42.37
2019-01-11T12:08:26.110Z,37.97
2019-01-11T12:09:36.212Z,34.80
2019-01-11T12:10:41.454Z,44.33
2019-01-11T12:11:46.849Z,41.10
2019-01-11T12:12:52.037Z,40.60
2019-01-11T12:13:57.190Z,41.93
2019-01-11T12:15:09.351Z,44.87
2019-01-11T12:16:16.059Z,40.10
2019-01-11T12:17:21.365Z,47.03
2019-01-11T12:18:26.693Z,41.77
2019-01-11T12:19:37.306Z,47.77
2019-01-11T12:20:46.779Z,40.07
2019-01-11T12:21:52.037Z,44.57
2019-01-11T12:23:04.311Z,40.27
2019-01-11T12:24:11.852Z,40.10
2019-01-11T12:25:18.975Z,39.13
2019-01-11T12:26:24.654Z,39.23
2019-01-11T12:27:30.010Z,36.10
2019-01-11T12:28:41.057Z,43.77
2019-01-11T12:29:48.102Z,36.70
2019-01-11T12:30:55.641Z,37.60
2019-01-11T12:32:05.482Z,40.37
2019-01-11T12:33:11.534Z,28.43
2019-01-11T12:34:17.539Z,40.77
2019-01-11T12:35:25.966Z,36.43
2019-01-11T12:36:33.523Z,35.77
2019-01-11T12:37:40.834Z,33.47
2019-01-11T12:38:50.011Z,31.13
2019-01-11T12:39:55.819Z,43.57
2019-01-11T12:41:01.837Z,32.73
2019-01-11T12:42:07.101Z,35.00
2019-01-11T12:43:14.269Z,32.90
2019-01-11T12:44:21.798Z,39.70
2019-01-11T12:45:32.960Z,34.53
2019-01-11T12:46:38.879Z,32.00
2019-01-11T12:47:45.956Z,34.97
2019-01-11T12:48:51.552Z,29.83
2019-01-11T12:49:59.659Z,75.87
2019-01-11T12:51:08.179Z,39.93
2019-01-11T12:52:14.997Z,31.70
2019-01-11T12:53:20.391Z,36.07
2019-01-11T12:54:25.672Z,31.10
2019-01-11T12:55:31.034Z,29.30
2019-01-11T12:56:36.364Z,26.70
2019-01-11T12:57:41.660Z,22.00
2019-01-11T12:58:46.862Z,24.17
2019-01-11T12:59:52.186Z,28.53
2019-01-11T13:00:59.237Z,32.27
2019-01-11T13:02:06.400Z,26.37
2019-01-11T13:03:13.313Z,23.37
2019-01-11T13:04:19.768Z,24.10
2019-01-11T13:05:26.317Z,22.60
2019-01-11T13:06:33.005Z,22.97
2019-01-11T13:07:39.528Z,26.37
2019-01-11T13:08:46.007Z,23.93
2019-01-11T13:09:52.687Z,21.93
2019-01-11T13:11:01.618Z,19.07
2019-01-11T13:12:08.366Z,19.50
2019-01-11T13:13:14.696Z,23.77
2019-01-11T13:14:20.612Z,15.10
2019-01-11T13:15:27.450Z,18.53
2019-01-11T13:16:33.566Z,19.50
2019-01-11T13:17:41.594Z,20.73
2019-01-11T13:18:47.803Z,17.27
2019-01-11T13:19:53.631Z,18.33
2019-01-11T13:20:59.684Z,19.50
2019-01-11T13:22:07.136Z,13.33
2019-01-11T13:23:12.635Z,18.33
2019-01-11T13:24:18.846Z,17.07
2019-01-11T13:25:24.766Z,16.20
2019-01-11T13:26:30.136Z,23.57
2019-01-11T13:27:35.352Z,16.57
2019-01-11T13:29:07.519Z,15.67
2019-01-11T13:30:18.268Z,12.50
2019-01-11T13:31:32.180Z,13.10
2019-01-11T13:32:43.154Z,11.37
2019-01-11T13:33:50.477Z,19.07
2019-01-11T13:34:56.224Z,15.43
2019-01-11T13:36:06.231Z,13.63
2019-01-11T13:37:12.228Z,12.43
2019-01-11T13:38:19.002Z,11.53
2019-01-11T13:39:24.195Z,14.77
2019-01-11T13:40:29.412Z,16.27
2019-01-11T13:41:37.515Z,13.97
2019-01-11T13:42:47.094Z,12.87
2019-01-11T13:43:53.952Z,13.80
2019-01-11T13:45:00.781Z,11.33
2019-01-11T13:46:11.986Z,8.73
2019-01-11T13:47:17.972Z,10.63
2019-01-11T13:48:28.281Z,12.27
2019-01-11T13:49:34.503Z,12.03
2019-01-11T13:50:41.811Z,11.60
2019-01-11T13:51:47.654Z,10.93
2019-01-11T13:52:53.322Z,13.47
2019-01-11T13:53:59.155Z,12.73
2019-01-11T13:55:04.770Z,10.33
2019-01-11T13:56:10.511Z,12.17
2019-01-11T13:57:18.462Z,9.03
2019-01-11T13:58:23.846Z,10.57
2019-01-11T13:59:29.143Z,9.93
2019-01-11T14:00:34.574Z,11.03
2019-01-11T14:01:43.735Z,7.67
2019-01-11T14:02:51.037Z,10.20
2019-01-11T14:03:57.060Z,8.03
2019-01-11T14:05:03.501Z,13.87
2019-01-11T14:06:09.548Z,9.50
2019-01-11T14:07:15.743Z,8.80
2019-01-11T14:08:24.932Z,7.67
2019-01-11T14:09:30.375Z,8.33
2019-01-11T14:10:36.450Z,11.50
2019-01-11T14:11:43.897Z,11.10
2019-01-11T14:12:53.388Z,11.07
2019-01-11T14:13:58.542Z,10.30
2019-01-11T14:15:04.586Z,11.03